Time;durP1;ratioP1;P1;durP2;ratioP2;P2;SDS_P1;SDS_P2;PMS_P1;PMS_P2;Temp;Humidity;BMP_temperature;BMP_pressure;BME280_temperature;BME280_humidity;BME280_pressure;Samples;Min_cycle;Max_cycle;Signal;HPM_P1;HPM_P2
2022/10/07 00:02:16;;;;;;;10.52;2.90;;;;;;;9.04;100.00;101846.09;8325167;28;20132;-50
2022/10/07 00:06:20;;;;;;;15.43;3.67;;;;;;;8.92;100.00;101841.47;8325423;28;20033;-49
2022/10/07 00:10:20;;;;;;;8.50;3.20;;;;;;;8.79;100.00;101836.00;8355314;28;20553;-49
2022/10/07 00:14:21;;;;;;;7.03;2.83;;;;;;;8.81;100.00;101833.22;8357219;28;20052;-49
2022/10/07 00:18:21;;;;;;;8.95;2.10;;;;;;;8.81;100.00;101827.81;8356260;28;20128;-48
2022/10/07 00:22:22;;;;;;;9.15;2.67;;;;;;;8.82;100.00;101824.16;8356228;28;20049;-48
2022/10/07 00:26:25;;;;;;;9.60;3.10;;;;;;;8.75;100.00;101817.44;8343359;28;20084;-48
2022/10/07 00:30:25;;;;;;;12.60;2.72;;;;;;;8.79;100.00;101808.16;8335590;28;20041;-51
2022/10/07 00:34:26;;;;;;;8.15;2.45;;;;;;;8.80;100.00;101804.50;8325047;28;20565;-48
2022/10/07 00:38:26;;;;;;;11.68;3.05;;;;;;;8.73;100.00;101803.16;8324299;28;20134;-48
2022/10/07 00:42:29;;;;;;;6.90;2.60;;;;;;;8.69;100.00;101807.03;8356218;28;20067;-48
2022/10/07 00:46:34;;;;;;;14.45;3.08;;;;;;;8.70;100.00;101806.06;8351040;28;20106;-49
2022/10/07 00:50:35;;;;;;;11.43;3.05;;;;;;;8.74;100.00;101804.88;8324317;28;20391;-48
2022/10/07 00:54:36;;;;;;;13.82;2.58;;;;;;;8.70;100.00;101797.97;8325225;28;20041;-48
2022/10/07 00:58:40;;;;;;;8.40;2.45;;;;;;;8.65;100.00;101794.69;8326079;28;20552;-48
2022/10/07 01:02:41;;;;;;;11.13;2.50;;;;;;;8.62;100.00;101798.44;8324174;28;20045;-49
2022/10/07 01:06:44;;;;;;;8.05;2.72;;;;;;;8.55;100.00;101790.84;8323279;28;20085;-49
2022/10/07 01:11:00;;;;;;;8.82;2.75;;;;;;;8.50;100.00;101784.88;8339758;28;20071;-48
2022/10/07 01:15:12;;;;;;;9.45;2.25;;;;;;;8.53;100.00;101781.97;8355395;28;20046;-49
2022/10/07 01:19:53;;;;;;;7.15;2.78;;;;;;;8.52;100.00;101777.56;8333987;28;20099;-48
2022/10/07 01:24:21;;;;;;;10.32;2.60;;;;;;;8.47;100.00;101777.84;8348509;28;20037;-52
2022/10/07 01:28:30;;;;;;;9.25;2.92;;;;;;;8.41;100.00;101761.19;8345129;28;20051;-49
2022/10/07 01:32:46;;;;;;;7.25;2.15;;;;;;;8.41;100.00;101753.09;8328807;28;20460;-51
2022/10/07 01:36:51;;;;;;;14.88;3.13;;;;;;;8.35;100.00;101748.13;8336081;28;20495;-51
2022/10/07 01:40:58;;;;;;;12.60;2.30;;;;;;;8.34;100.00;101751.78;8348826;28;20040;-48
2022/10/07 01:44:59;;;;;;;11.93;2.58;;;;;;;8.33;100.00;101748.22;8361218;28;20398;-48
2022/10/07 01:49:00;;;;;;;9.77;2.72;;;;;;;8.24;100.00;101729.06;8337036;28;20116;-49
2022/10/07 01:53:40;;;;;;;7.85;2.25;;;;;;;8.23;100.00;101733.59;8329241;28;20037;-48
2022/10/07 01:58:07;;;;;;;9.48;2.33;;;;;;;8.14;100.00;101717.13;8383862;28;20178;-50
2022/10/07 02:02:47;;;;;;;13.05;3.13;;;;;;;8.15;100.00;101724.22;8361376;28;20041;-48
2022/10/07 02:11:26;;;;;;;8.43;2.40;;;;;;;8.09;100.00;101712.84;8297271;28;20501;-48
2022/10/07 02:15:44;;;;;;;16.02;2.80;;;;;;;8.08;100.00;101703.06;8301907;28;20041;-48
2022/10/07 02:19:52;;;;;;;10.40;2.72;;;;;;;8.09;100.00;101706.63;8286219;28;20034;-49
2022/10/07 02:23:56;;;;;;;15.15;3.13;;;;;;;8.08;100.00;101705.75;8286937;28;20037;-49
2022/10/07 02:27:57;;;;;;;9.70;2.38;;;;;;;8.05;100.00;101687.09;8283110;28;20503;-51
2022/10/07 02:32:02;;;;;;;12.20;2.90;;;;;;;8.05;100.00;101686.22;8249439;28;20097;-52
2022/10/07 02:36:12;;;;;;;11.02;2.60;;;;;;;8.04;100.00;101679.09;8255552;28;20046;-48
2022/10/07 02:40:14;;;;;;;7.22;2.17;;;;;;;7.98;100.00;101674.97;8248696;28;20047;-49
2022/10/07 02:44:29;;;;;;;8.45;2.65;;;;;;;7.97;100.00;101664.31;8284863;28;20060;-48
2022/10/07 02:48:38;;;;;;;9.20;2.33;;;;;;;7.95;100.00;101668.91;8287456;28;20439;-48
2022/10/07 02:52:41;;;;;;;11.13;2.22;;;;;;;7.99;100.00;101663.25;8278099;28;20097;-49
2022/10/07 02:56:44;;;;;;;9.93;2.47;;;;;;;7.99;100.00;101665.94;8280109;28;20064;-48
2022/10/07 03:00:51;;;;;;;13.48;2.30;;;;;;;7.97;100.00;101654.38;8286966;28;20042;-50
2022/10/07 03:04:56;;;;;;;9.65;2.65;;;;;;;7.95;100.00;101653.63;8286737;28;20454;-49
2022/10/07 03:08:59;;;;;;;6.45;2.20;;;;;;;7.92;100.00;101648.44;8284903;28;20038;-53
2022/10/07 03:13:03;;;;;;;14.55;2.35;;;;;;;7.94;100.00;101651.03;8286443;28;20085;-48
2022/10/07 03:17:05;;;;;;;10.07;2.78;;;;;;;7.91;100.00;101644.03;8284124;28;20109;-49
2022/10/07 03:21:07;;;;;;;11.88;2.63;;;;;;;7.90;100.00;101644.97;8270210;28;20045;-48
2022/10/07 03:25:09;;;;;;;10.98;2.38;;;;;;;7.91;100.00;101635.06;8258781;28;20042;-50
2022/10/07 03:29:10;;;;;;;13.93;2.60;;;;;;;7.86;100.00;101634.47;8233710;28;20038;-49
2022/10/07 03:33:15;;;;;;;7.95;2.78;;;;;;;7.86;100.00;101635.34;8231353;28;20583;-49
2022/10/07 03:37:15;;;;;;;10.77;2.50;;;;;;;7.88;100.00;101641.53;8230884;28;20536;-49
2022/10/07 03:41:18;;;;;;;9.05;2.63;;;;;;;7.88;100.00;101630.75;8231827;28;20034;-52
2022/10/07 03:45:21;;;;;;;8.25;2.70;;;;;;;7.85;100.00;101632.75;8221018;28;20126;-51
2022/10/07 03:49:22;;;;;;;15.38;2.60;;;;;;;7.84;100.00;101634.56;8228461;28;20448;-51
2022/10/07 03:53:25;;;;;;;10.02;2.50;;;;;;;7.83;100.00;101630.16;8231199;28;20464;-49
2022/10/07 03:57:58;;;;;;;7.88;2.40;;;;;;;7.78;100.00;101629.56;8233876;28;20038;-50
2022/10/07 04:01:48;;;;;;;13.05;2.60;;;;;;;7.74;100.00;101628.03;8254718;28;20082;-49
2022/10/07 04:05:59;;;;;;;15.30;2.42;;;;;;;7.70;100.00;101615.75;8253111;28;20112;-48
2022/10/07 04:10:01;;;;;;;9.77;2.30;;;;;;;7.65;100.00;101614.28;8223157;28;20489;-48
2022/10/07 04:14:02;;;;;;;9.43;3.17;;;;;;;7.63;100.00;101611.69;8237872;28;20054;-49
2022/10/07 04:18:04;;;;;;;7.05;1.98;;;;;;;7.67;100.00;101618.63;8257442;28;20871;-53
2022/10/07 04:22:05;;;;;;;16.50;2.80;;;;;;;7.67;100.00;101605.16;8256094;28;20647;-49
2022/10/07 04:26:09;;;;;;;11.02;2.55;;;;;;;7.67;100.00;101604.28;8257299;28;20039;-48
2022/10/07 04:30:12;;;;;;;14.93;2.67;;;;;;;7.62;100.00;101598.31;8233000;28;20440;-51
2022/10/07 04:34:14;;;;;;;7.85;2.65;;;;;;;7.66;100.00;101595.34;8254644;28;20231;-50
2022/10/07 04:38:17;;;;;;;10.30;2.53;;;;;;;7.68;100.00;101596.13;8257174;28;20034;-49
2022/10/07 04:43:22;;;;;;;13.65;3.25;;;;;;;7.65;100.00;101596.31;8257897;28;20043;-52
2022/10/07 04:46:40;;;;;;;9.25;2.67;;;;;;;7.65;100.00;101584.69;8257489;28;20061;-52
2022/10/07 04:50:46;;;;;;;12.23;2.30;;;;;;;7.63;100.00;101586.63;8257590;28;20111;-49
2022/10/07 04:54:47;;;;;;;11.80;2.25;;;;;;;7.61;100.00;101589.41;8257632;28;20045;-49
2022/10/07 04:58:48;;;;;;;19.13;3.03;;;;;;;7.59;100.00;101580.56;8257469;28;20034;-49
2022/10/07 05:02:50;;;;;;;10.27;2.53;;;;;;;7.61;100.00;101584.03;8256842;28;20504;-49
2022/10/07 05:06:53;;;;;;;10.40;2.40;;;;;;;7.54;100.00;101571.88;8257738;28;20045;-50
2022/10/07 05:10:55;;;;;;;11.35;2.58;;;;;;;7.51;100.00;101561.31;8288035;28;20061;-49
2022/10/07 05:14:57;;;;;;;12.95;2.20;;;;;;;7.48;100.00;101569.56;8288863;28;20050;-48
2022/10/07 05:18:58;;;;;;;15.68;2.58;;;;;;;7.45;100.00;101564.41;8256297;28;20117;-49
2022/10/07 05:22:59;;;;;;;8.55;2.33;;;;;;;7.44;100.00;101562.66;8225713;28;20035;-48
2022/10/07 05:27:00;;;;;;;7.45;2.13;;;;;;;7.49;100.00;101567.75;8220593;28;20049;-48
2022/10/07 05:31:09;;;;;;;10.88;2.25;;;;;;;7.49;100.00;101563.25;8228924;28;20094;-49
2022/10/07 05:35:10;;;;;;;11.13;2.00;;;;;;;7.50;100.00;101562.28;8266581;28;20104;-48
2022/10/07 05:39:10;;;;;;;13.70;2.25;;;;;;;7.49;100.00;101568.66;8261628;28;20039;-48
2022/10/07 05:43:19;;;;;;;13.57;2.50;;;;;;;7.47;100.00;101565.16;8252979;28;20122;-49
2022/10/07 05:47:20;;;;;;;8.38;2.17;;;;;;;7.46;100.00;101571.53;8248358;28;20034;-48
2022/10/07 05:51:24;;;;;;;15.20;2.58;;;;;;;7.47;100.00;101565.16;8256194;28;20050;-48
2022/10/07 05:55:25;;;;;;;19.63;2.60;;;;;;;7.49;100.00;101551.63;8227216;28;20488;-49
2022/10/07 05:59:26;;;;;;;10.02;1.85;;;;;;;7.54;100.00;101544.13;8247280;28;20448;-50
2022/10/07 06:03:27;;;;;;;17.58;7.10;;;;;;;7.58;100.00;101541.16;8255128;28;20034;-50
2022/10/07 06:07:30;;;;;;;11.35;3.47;;;;;;;7.67;100.00;101540.59;8223214;28;20030;-49
2022/10/07 06:15:53;;;;;;;18.98;2.83;;;;;;;7.81;100.00;101537.84;8221972;28;20062;-50
2022/10/07 06:19:54;;;;;;;8.45;2.97;;;;;;;7.90;100.00;101536.44;8253943;28;20050;-49
2022/10/07 06:23:57;;;;;;;8.10;2.80;;;;;;;8.00;100.00;101538.41;8242340;28;20042;-50
2022/10/07 06:28:02;;;;;;;14.65;4.65;;;;;;;8.20;100.00;101538.94;8245539;28;20038;-49
2022/10/07 06:32:04;;;;;;;13.73;2.83;;;;;;;8.34;100.00;101534.41;8271066;28;21809;-51
2022/10/07 06:36:11;;;;;;;8.80;2.30;;;;;;;8.55;100.00;101540.19;8218305;28;20050;-50
2022/10/07 06:40:12;;;;;;;13.68;2.72;;;;;;;8.71;100.00;101549.84;8235215;28;20104;-49
2022/10/07 06:44:13;;;;;;;12.38;2.67;;;;;;;8.90;100.00;101553.00;8230632;28;20078;-50
2022/10/07 06:48:14;;;;;;;9.18;2.42;;;;;;;9.18;100.00;101547.44;8213369;28;20053;-51
2022/10/07 06:52:15;;;;;;;12.55;2.95;;;;;;;9.40;100.00;101546.81;8231694;28;20692;-50
2022/10/07 06:56:16;;;;;;;11.05;2.58;;;;;;;9.65;100.00;101557.59;8224955;28;20046;-49
2022/10/07 07:00:17;;;;;;;9.75;3.22;;;;;;;9.76;100.00;101545.03;8234466;28;20034;-49
2022/10/07 07:04:19;;;;;;;9.32;2.70;;;;;;;9.85;100.00;101554.31;8222775;28;20059;-49
2022/10/07 07:08:26;;;;;;;13.52;3.00;;;;;;;10.09;100.00;101547.16;8225150;28;20568;-50
2022/10/07 07:12:28;;;;;;;11.10;2.58;;;;;;;10.37;100.00;101546.84;8224274;28;20038;-50
2022/10/07 07:16:30;;;;;;;9.88;2.33;;;;;;;10.54;98.71;101542.88;8222142;28;20069;-50
2022/10/07 07:20:36;;;;;;;11.65;2.33;;;;;;;10.76;97.63;101543.84;8242240;28;20043;-52
2022/10/07 07:24:37;;;;;;;14.93;3.28;;;;;;;11.06;97.65;101544.22;8224043;28;20414;-50
2022/10/07 07:28:39;;;;;;;8.77;2.30;;;;;;;11.17;97.44;101549.66;8237883;28;20421;-49
2022/10/07 07:32:40;;;;;;;9.88;2.00;;;;;;;11.35;95.30;101547.34;8223610;28;20117;-50
2022/10/07 07:36:45;;;;;;;8.70;2.33;;;;;;;11.28;95.56;101541.56;8224874;28;20035;-49
2022/10/07 07:40:47;;;;;;;10.15;2.10;;;;;;;11.39;97.45;101538.88;8223592;28;20130;-51
2022/10/07 07:44:48;;;;;;;11.73;2.55;;;;;;;11.70;98.01;101537.31;8224684;28;20046;-51
2022/10/07 07:48:53;;;;;;;9.90;1.92;;;;;;;12.04;96.54;101535.47;8240071;28;20049;-49
2022/10/07 07:52:54;;;;;;;7.13;2.10;;;;;;;12.13;95.31;101540.16;8223792;28;20452;-51
2022/10/07 07:56:56;;;;;;;10.20;2.15;;;;;;;12.49;94.62;101539.78;8219984;28;20053;-51
2022/10/07 08:01:05;;;;;;;13.68;2.30;;;;;;;12.80;94.12;101542.50;8217761;28;20070;-49
2022/10/07 08:05:06;;;;;;;9.82;2.90;;;;;;;13.21;93.12;101544.44;8228632;28;20050;-50
2022/10/07 08:09:08;;;;;;;12.88;3.00;;;;;;;13.46;93.30;101531.31;8244196;28;20065;-51
2022/10/07 08:13:10;;;;;;;11.82;2.05;;;;;;;13.88;90.93;101521.22;8243926;28;20034;-52
2022/10/07 08:17:11;;;;;;;13.48;2.60;;;;;;;14.30;89.92;101522.78;8254460;28;20133;-50
2022/10/07 08:21:14;;;;;;;9.93;2.08;;;;;;;14.47;86.71;101518.53;8254183;28;20515;-49
2022/10/07 08:25:15;;;;;;;8.60;1.52;;;;;;;14.92;85.79;101509.69;8280840;28;20077;-51
2022/10/07 08:29:17;;;;;;;6.65;1.40;;;;;;;14.95;88.01;101509.38;8263111;28;20901;-50
2022/10/07 08:33:20;;;;;;;11.52;2.00;;;;;;;15.45;86.97;101508.19;8252412;28;20042;-50
2022/10/07 08:37:21;;;;;;;10.93;1.95;;;;;;;15.70;85.51;101504.78;8287875;28;20465;-51
2022/10/07 08:41:44;;;;;;;9.40;2.90;;;;;;;15.97;82.36;101503.09;8286910;28;20084;-50
2022/10/07 08:45:46;;;;;;;14.40;1.87;;;;;;;16.29;79.38;101503.50;8288498;28;20511;-49
2022/10/07 08:50:03;;;;;;;10.10;1.70;;;;;;;16.83;77.94;101504.25;8279831;28;20042;-51
2022/10/07 08:54:04;;;;;;;13.05;1.63;;;;;;;16.80;77.52;101501.00;8288826;28;20050;-53
2022/10/07 08:58:33;;;;;;;11.63;1.92;;;;;;;17.30;75.38;101477.50;8286463;28;20431;-53
2022/10/07 09:03:01;;;;;;;9.75;2.70;;;;;;;18.97;70.31;101476.41;8255087;28;20141;-51
2022/10/07 09:07:10;;;;;;;10.48;1.58;;;;;;;21.67;62.50;101464.31;8276400;28;20073;-54
2022/10/07 09:11:19;;;;;;;13.85;2.55;;;;;;;22.71;58.43;101462.09;8286443;28;20642;-52
2022/10/07 09:15:33;;;;;;;14.40;1.88;;;;;;;23.73;56.10;101456.00;8282266;28;20033;-53
2022/10/07 09:19:40;;;;;;;11.73;1.95;;;;;;;24.54;53.73;101450.41;8278272;28;20041;-51
2022/10/07 09:23:42;;;;;;;10.15;1.55;;;;;;;23.80;54.52;101457.75;8272054;28;20033;-52
2022/10/07 09:27:42;;;;;;;9.65;1.70;;;;;;;24.50;52.62;101460.19;8280405;28;20536;-51
2022/10/07 09:31:43;;;;;;;11.90;1.98;;;;;;;24.56;52.28;101451.06;8281960;28;20093;-52
2022/10/07 09:35:52;;;;;;;15.18;1.80;;;;;;;25.18;51.62;101432.22;8278649;28;20039;-52
2022/10/07 09:39:56;;;;;;;10.57;1.60;;;;;;;25.23;50.55;101442.66;8276664;28;20069;-54
2022/10/07 09:44:03;;;;;;;12.27;2.30;;;;;;;25.67;49.68;101443.69;8284595;28;20541;-51
2022/10/07 09:48:15;;;;;;;8.52;1.77;;;;;;;26.13;49.21;101419.50;8286560;28;20041;-54
2022/10/07 09:56:45;;;;;;;6.32;1.10;;;;;;;26.07;48.19;101406.50;8380019;27;20131;-50
2022/10/07 10:00:49;;;;;;;8.52;2.03;;;;;;;26.61;48.20;101415.19;8419446;28;20047;-53
2022/10/07 10:04:53;;;;;;;8.65;1.40;;;;;;;26.32;46.60;101415.75;8397407;28;20041;-49
2022/10/07 10:08:55;;;;;;;9.17;2.60;;;;;;;26.69;46.68;101401.06;8371810;28;20425;-53
2022/10/07 10:12:59;;;;;;;7.60;1.55;;;;;;;26.31;46.32;101391.88;8398089;28;20048;-50
2022/10/07 10:16:59;;;;;;;8.10;1.65;;;;;;;27.20;46.04;101388.91;8363414;28;20044;-50
2022/10/07 10:21:24;;;;;;;15.93;2.38;;;;;;;26.96;45.40;101378.66;8382037;28;20123;-50
2022/10/07 10:26:54;;;;;;;12.77;1.90;;;;;;;26.83;45.47;101374.91;8364932;28;20525;-50
2022/10/07 10:30:20;;;;;;;9.18;2.05;;;;;;;27.17;45.35;101369.94;8373871;28;20036;-51
2022/10/07 10:35:00;;;;;;;11.23;2.22;;;;;;;27.70;44.24;101359.97;8369469;28;20399;-49
2022/10/07 10:39:11;;;;;;;12.70;1.58;;;;;;;27.31;44.93;101357.63;8407195;28;20043;-50
2022/10/07 10:43:38;;;;;;;8.50;1.50;;;;;;;27.60;44.52;101356.91;8409266;28;20169;-51
2022/10/07 10:57:00;;;;;;;9.80;1.55;;;;;;;28.60;42.77;101334.78;8388184;27;20080;-53
2022/10/07 11:01:23;;;;;;;7.28;1.70;;;;;;;28.30;43.24;101318.09;8366396;28;20037;-52
2022/10/07 11:05:36;;;;;;;10.65;1.92;;;;;;;27.99;44.31;101317.53;8370472;28;20033;-49
2022/10/07 11:09:42;;;;;;;8.60;1.50;;;;;;;28.78;42.25;101308.81;8369890;28;20040;-53
2022/10/07 11:14:09;;;;;;;14.02;2.35;;;;;;;28.34;43.43;101301.78;8372986;28;20036;-50
2022/10/07 11:18:20;;;;;;;14.63;1.70;;;;;;;29.01;41.52;101292.97;8365243;28;20422;-53
2022/10/07 11:22:34;;;;;;;9.48;1.92;;;;;;;27.48;43.43;101289.28;8378144;28;20336;-50
2022/10/07 11:26:42;;;;;;;8.48;1.40;;;;;;;28.42;42.51;101276.41;8376003;28;20036;-54
2022/10/07 11:30:51;;;;;;;6.68;1.63;;;;;;;27.62;44.22;101269.41;8365534;28;20040;-53
2022/10/07 11:35:00;;;;;;;11.95;2.67;;;;;;;28.38;43.22;101264.91;8363280;28;20045;-50
2022/10/07 11:39:00;;;;;;;10.90;1.80;;;;;;;28.27;43.43;101251.81;8374881;28;20110;-51
2022/10/07 11:43:07;;;;;;;10.38;1.50;;;;;;;28.64;42.01;101236.66;8366893;28;20038;-51
2022/10/07 11:47:13;;;;;;;10.68;1.48;;;;;;;28.63;41.24;101224.94;8369212;28;20064;-51
2022/10/07 11:51:22;;;;;;;16.50;2.10;;;;;;;28.05;42.63;101222.00;8369216;28;20033;-49
2022/10/07 11:55:34;;;;;;;7.13;1.55;;;;;;;28.84;41.56;101219.59;8366763;28;20048;-50
2022/10/07 11:59:47;;;;;;;8.27;1.77;;;;;;;28.50;42.64;101214.88;8366954;28;20048;-53
2022/10/07 12:03:48;;;;;;;17.50;2.10;;;;;;;28.20;43.37;101211.28;8364254;28;20067;-51
2022/10/07 12:07:58;;;;;;;9.85;1.60;;;;;;;27.46;44.88;101205.31;8343555;28;20041;-50
2022/10/07 12:11:59;;;;;;;9.23;2.03;;;;;;;28.27;42.69;101189.78;8348244;28;20063;-52
2022/10/07 12:16:26;;;;;;;14.63;2.00;;;;;;;26.95;43.95;101185.41;8345125;28;20041;-50
2022/10/07 12:20:57;;;;;;;11.20;1.95;;;;;;;27.54;43.72;101178.03;8339988;28;20403;-50
2022/10/07 12:25:37;;;;;;;9.45;1.85;;;;;;;27.94;43.39;101167.22;8343128;28;20422;-50
2022/10/07 12:38:26;;;;;;;11.18;2.00;;;;;;;25.99;45.13;101132.38;8376043;27;20673;-50
2022/10/07 12:42:28;;;;;;;8.43;1.90;;;;;;;24.09;49.10;101136.09;8377048;28;20418;-52
2022/10/07 12:46:41;;;;;;;13.75;2.30;;;;;;;22.17;51.69;101120.03;8371686;28;20067;-52
2022/10/07 12:50:45;;;;;;;11.20;2.20;;;;;;;21.12;55.10;101111.81;8365727;28;20068;-50
2022/10/07 12:54:52;;;;;;;11.95;1.88;;;;;;;20.63;56.06;101105.25;8375038;28;20690;-53
2022/10/07 13:00:11;;;;;;;15.63;2.00;;;;;;;21.47;57.18;101099.91;8388593;27;20505;-51
2022/10/07 13:04:04;;;;;;;17.80;2.42;;;;;;;21.34;54.30;101083.28;8363585;28;20045;-50
2022/10/07 13:08:44;;;;;;;10.90;1.90;;;;;;;20.85;57.45;101079.53;8401112;27;20509;-50
2022/10/07 13:12:54;;;;;;;11.18;2.30;;;;;;;21.03;56.55;101074.47;8374859;28;20041;-53
2022/10/07 13:21:38;;;;;;;14.90;2.00;;;;;;;20.54;57.38;101067.94;8391428;27;20401;-53
2022/10/07 13:25:46;;;;;;;14.00;2.00;;;;;;;20.75;56.13;101054.25;8359684;28;20037;-49
2022/10/07 13:29:47;;;;;;;13.52;2.00;;;;;;;20.39;57.54;101045.09;8355285;28;20041;-53
2022/10/07 13:33:49;;;;;;;14.73;1.90;;;;;;;20.17;58.73;101038.69;8366966;28;20060;-50
2022/10/07 13:37:50;;;;;;;17.83;2.60;;;;;;;20.15;58.20;101029.78;8357636;28;20076;-51
2022/10/07 13:41:54;;;;;;;10.23;1.42;;;;;;;20.13;59.68;101025.53;8319083;28;20049;-53
2022/10/07 13:45:57;;;;;;;13.32;2.05;;;;;;;20.43;58.34;101019.00;8321529;28;20053;-50
2022/10/07 13:49:59;;;;;;;8.30;1.88;;;;;;;20.57;59.20;101010.72;8357894;28;20040;-52
2022/10/07 13:54:05;;;;;;;9.80;1.67;;;;;;;20.45;58.90;101008.63;8379823;28;20036;-53
2022/10/07 13:58:06;;;;;;;15.05;2.22;;;;;;;19.95;58.88;101011.31;8412612;28;20081;-50
2022/10/07 14:02:14;;;;;;;10.05;1.48;;;;;;;20.14;59.13;101005.28;8369203;28;20064;-53
2022/10/07 14:06:36;;;;;;;11.75;1.85;;;;;;;20.12;58.66;100996.31;8371977;28;20156;-52
2022/10/07 14:10:54;;;;;;;14.60;1.95;;;;;;;19.91;58.28;100996.25;8373903;28;20037;-52
2022/10/07 14:15:01;;;;;;;8.90;1.60;;;;;;;20.24;59.02;100979.22;8369725;28;20041;-53
2022/10/07 14:19:02;;;;;;;11.02;1.77;;;;;;;20.06;59.30;100975.16;8390062;28;20091;-53
2022/10/07 14:23:06;;;;;;;12.15;1.77;;;;;;;19.91;59.08;100961.41;8372001;28;20045;-50
2022/10/07 14:27:46;;;;;;;11.10;2.00;;;;;;;20.35;60.22;100955.91;8370423;28;20074;-47
2022/10/07 14:36:09;;;;;;;11.13;1.90;;;;;;;20.21;59.07;100940.28;8329904;28;20098;-48
2022/10/07 14:40:22;;;;;;;10.05;1.80;;;;;;;20.10;59.13;100933.38;8330609;28;20041;-48
2022/10/07 14:44:23;;;;;;;13.52;1.90;;;;;;;20.13;58.92;100932.19;8336504;28;20067;-48
2022/10/07 14:48:24;;;;;;;10.93;1.63;;;;;;;20.02;61.21;100930.75;8335953;28;20110;-47
2022/10/07 14:52:37;;;;;;;10.52;1.52;;;;;;;19.97;59.41;100922.22;8342548;28;20033;-49
2022/10/07 14:56:37;;;;;;;11.20;1.45;;;;;;;20.08;59.67;100923.63;8339694;28;20341;-47
2022/10/07 15:00:38;;;;;;;13.90;2.05;;;;;;;20.02;60.24;100924.41;8353193;28;20048;-51
2022/10/07 15:04:39;;;;;;;10.45;1.95;;;;;;;19.99;59.58;100914.66;8336454;28;20071;-48
2022/10/07 15:08:39;;;;;;;10.13;1.95;;;;;;;19.91;59.40;100912.00;8326922;28;20034;-47
2022/10/07 15:12:42;;;;;;;10.63;2.00;;;;;;;19.99;59.24;100906.44;8316558;28;20144;-51
2022/10/07 15:16:42;;;;;;;7.05;2.00;;;;;;;19.83;60.44;100909.38;8353033;28;20075;-48
2022/10/07 15:20:43;;;;;;;10.80;2.10;;;;;;;19.70;59.84;100900.13;8365402;28;20049;-48
2022/10/07 15:24:44;;;;;;;9.70;1.77;;;;;;;19.79;59.30;100890.75;8341953;28;20720;-51
2022/10/07 15:28:49;;;;;;;12.40;1.40;;;;;;;19.76;59.33;100885.66;8346622;28;20111;-47
2022/10/07 15:32:50;;;;;;;15.68;2.85;;;;;;;19.80;60.85;100875.97;8350251;28;20534;-50
2022/10/07 15:36:50;;;;;;;14.70;1.98;;;;;;;19.61;62.37;100871.91;8343886;28;20406;-51
2022/10/07 15:40:55;;;;;;;12.35;2.08;;;;;;;19.74;60.69;100865.75;8312790;28;20398;-48
2022/10/07 15:44:56;;;;;;;12.43;1.83;;;;;;;19.68;61.88;100863.78;8325686;28;20045;-49
2022/10/07 15:48:58;;;;;;;14.35;2.10;;;;;;;19.42;63.25;100867.88;8312542;28;20100;-47
2022/10/07 15:52:59;;;;;;;13.48;2.38;;;;;;;19.37;63.16;100859.34;8324725;28;20531;-48
2022/10/07 15:56:59;;;;;;;10.98;1.95;;;;;;;19.21;63.78;100862.25;8325546;28;20406;-48
2022/10/07 16:01:03;;;;;;;12.48;1.85;;;;;;;19.07;63.72;100865.84;8308158;28;20445;-48
2022/10/07 16:05:04;;;;;;;12.25;2.58;;;;;;;18.92;64.80;100854.00;8327586;28;20060;-48
2022/10/07 16:09:05;;;;;;;9.80;1.45;;;;;;;18.96;64.64;100855.31;8331276;28;20042;-48
2022/10/07 16:13:06;;;;;;;10.77;1.90;;;;;;;18.91;64.96;100846.78;8318198;28;20485;-48
2022/10/07 16:17:07;;;;;;;13.20;2.03;;;;;;;18.60;67.92;100848.78;8318443;28;20112;-47
2022/10/07 16:21:14;;;;;;;12.50;1.85;;;;;;;18.30;69.58;100852.41;8350697;28;20052;-47
2022/10/07 16:25:15;;;;;;;9.13;1.80;;;;;;;17.94;72.31;100848.56;8350955;28;20065;-48
2022/10/07 16:30:50;;;;;;;12.75;2.17;;;;;;;17.79;72.77;100847.63;8343467;28;20127;-47
2022/10/07 16:33:40;;;;;;;8.65;1.67;;;;;;;17.14;77.59;100846.16;8331444;28;20049;-49
2022/10/07 16:37:40;;;;;;;14.48;2.40;;;;;;;16.88;79.22;100840.03;8318393;28;20049;-48
2022/10/07 16:41:41;;;;;;;13.23;2.80;;;;;;;16.66;80.11;100848.94;8316756;28;20052;-47
2022/10/07 16:45:42;;;;;;;10.77;1.70;;;;;;;16.66;79.61;100851.66;8315519;28;20408;-47
2022/10/07 16:49:43;;;;;;;8.85;2.03;;;;;;;16.49;80.47;100839.03;8335575;28;20049;-47
2022/10/07 16:53:46;;;;;;;16.50;2.10;;;;;;;16.09;82.39;100836.25;8316637;28;20452;-48
2022/10/07 16:57:46;;;;;;;10.20;2.17;;;;;;;16.44;80.80;100841.44;8323918;28;20071;-47
2022/10/07 17:02:08;;;;;;;12.05;1.88;;;;;;;15.80;83.82;100836.72;8322848;28;20033;-47
2022/10/07 17:06:12;;;;;;;16.52;1.65;;;;;;;15.57;85.87;100846.50;8320040;28;20545;-47
2022/10/07 17:10:13;;;;;;;11.10;2.13;;;;;;;15.41;86.47;100836.38;8343314;28;20111;-47
2022/10/07 17:14:17;;;;;;;13.38;2.95;;;;;;;15.47;85.88;100837.63;8317093;28;20044;-47
2022/10/07 17:18:18;;;;;;;74.53;25.05;;;;;;;15.35;85.95;100847.94;8324827;28;20045;-49
2022/10/07 17:22:19;;;;;;;12.85;2.03;;;;;;;15.54;84.79;100844.97;8299079;28;20148;-48
2022/10/07 17:26:19;;;;;;;13.05;1.60;;;;;;;15.33;85.29;100835.47;8309638;28;20036;-47
2022/10/07 17:30:20;;;;;;;15.57;3.63;;;;;;;15.22;85.86;100847.50;8324209;28;20176;-47
2022/10/07 17:34:21;;;;;;;14.60;2.92;;;;;;;14.81;88.29;100841.97;8340418;28;20418;-51
2022/10/07 17:38:22;;;;;;;9.20;2.72;;;;;;;14.49;89.11;100853.44;8359885;28;20510;-47
2022/10/07 17:42:23;;;;;;;14.95;2.15;;;;;;;14.47;89.43;100849.19;8318070;28;20529;-48
2022/10/07 17:46:27;;;;;;;9.95;1.90;;;;;;;14.31;89.86;100844.47;8325863;28;20086;-47
2022/10/07 17:50:29;;;;;;;23.17;2.03;;;;;;;14.51;88.78;100846.00;8316029;28;20046;-48
2022/10/07 17:54:30;;;;;;;10.13;2.10;;;;;;;14.17;90.09;100842.25;8329084;28;20385;-49
2022/10/07 17:58:31;;;;;;;13.38;1.83;;;;;;;14.33;89.35;100845.16;8326300;28;20040;-48
2022/10/07 18:02:32;;;;;;;10.57;1.67;;;;;;;14.05;90.58;100851.66;8344057;28;20464;-48
2022/10/07 18:06:34;;;;;;;9.50;1.80;;;;;;;13.91;91.59;100857.66;8325726;28;20038;-47
2022/10/07 18:10:36;;;;;;;23.15;2.72;;;;;;;13.86;92.30;100854.53;8327515;28;20048;-48
2022/10/07 18:15:36;;;;;;;8.70;2.35;;;;;;;13.61;93.82;100849.81;8325929;28;20037;-47
2022/10/07 18:18:57;;;;;;;13.27;1.67;;;;;;;13.51;95.68;100854.47;8341360;28;20045;-51
2022/10/07 18:22:58;;;;;;;15.82;2.30;;;;;;;13.42;96.16;100860.81;8331171;28;20091;-48
2022/10/07 18:26:59;;;;;;;12.40;2.25;;;;;;;13.26;95.75;100860.56;8319814;28;20033;-48
2022/10/07 18:31:01;;;;;;;13.05;2.45;;;;;;;13.41;95.80;100859.06;8340650;28;20566;-48
2022/10/07 18:35:02;;;;;;;14.20;2.50;;;;;;;13.30;96.19;100859.28;8371326;28;20379;-50
2022/10/07 18:39:06;;;;;;;14.23;2.42;;;;;;;13.15;96.83;100860.78;8381031;28;20043;-49
2022/10/07 18:43:08;;;;;;;15.93;4.07;;;;;;;13.64;93.28;100871.25;8341764;28;20106;-48
2022/10/07 18:47:08;;;;;;;9.30;2.88;;;;;;;13.88;90.30;100868.81;8338323;28;20494;-47
2022/10/07 18:51:11;;;;;;;8.82;2.78;;;;;;;13.78;90.98;100852.56;8355015;28;20497;-49
2022/10/07 18:55:13;;;;;;;19.00;3.83;;;;;;;13.72;91.31;100855.91;8373098;28;20118;-49
2022/10/07 18:59:16;;;;;;;22.27;3.17;;;;;;;13.40;93.11;100862.81;8372428;28;20517;-47
2022/10/07 19:03:17;;;;;;;16.70;3.03;;;;;;;13.15;94.78;100858.06;8390790;28;20046;-49
2022/10/07 19:07:18;;;;;;;15.00;3.38;;;;;;;12.83;96.20;100860.25;8351359;28;20481;-48
2022/10/07 19:11:19;;;;;;;12.50;2.97;;;;;;;12.74;98.11;100861.13;8351784;28;20049;-47
2022/10/07 19:15:20;;;;;;;11.73;2.97;;;;;;;12.47;97.02;100861.06;8354374;28;20502;-47
2022/10/07 19:19:23;;;;;;;16.33;2.75;;;;;;;12.43;99.30;100870.44;8356774;28;20045;-47
2022/10/07 19:23:26;;;;;;;12.80;3.05;;;;;;;12.90;97.80;100864.94;8347846;28;20076;-48
2022/10/07 19:27:27;;;;;;;14.38;3.15;;;;;;;12.58;99.42;100866.31;8353377;28;20033;-47
2022/10/07 19:31:31;;;;;;;12.90;2.75;;;;;;;12.20;99.07;100869.03;8293856;28;20084;-47
2022/10/07 19:35:33;;;;;;;16.67;3.13;;;;;;;12.00;100.00;100868.19;8355724;28;20041;-48